createdAt,value
2018-04-02T00:02:16.521Z,99122.41
2018-04-02T00:04:44.103Z,99125.37
2018-04-02T00:07:11.688Z,99125.91
2018-04-02T00:09:39.273Z,99122.52
2018-04-02T00:12:06.897Z,99130.73
2018-04-02T00:14:34.491Z,99137.93
2018-04-02T00:17:02.092Z,99130.64
2018-04-02T00:19:29.675Z,99123.84
2018-04-02T00:21:57.282Z,99124.80
2018-04-02T00:24:24.925Z,99119.27
2018-04-02T00:26:52.895Z,99120.88
2018-04-02T00:29:20.474Z,99130.26
2018-04-02T00:31:48.259Z,99122.70
2018-04-02T00:34:15.872Z,99133.97
2018-04-02T00:36:43.455Z,99131.52
2018-04-02T00:39:11.044Z,99126.63
2018-04-02T00:41:38.702Z,99125.33
2018-04-02T00:44:06.315Z,99126.80
2018-04-02T00:46:33.895Z,99132.94
2018-04-02T00:49:01.478Z,99129.53
2018-04-02T00:51:29.063Z,99127.13
2018-04-02T00:53:56.639Z,99136.27
2018-04-02T00:56:24.271Z,99125.30
2018-04-02T00:58:51.881Z,99131.31
2018-04-02T01:01:19.506Z,99129.97
2018-04-02T01:03:47.151Z,99134.60
2018-04-02T01:06:14.730Z,99134.96
2018-04-02T01:08:42.320Z,99138.02
2018-04-02T01:11:09.951Z,99135.72
2018-04-02T01:13:37.531Z,99135.82
2018-04-02T01:16:05.131Z,99145.80
2018-04-02T01:18:32.764Z,99150.95
2018-04-02T01:21:00.342Z,99150.97
2018-04-02T01:23:27.929Z,99151.72
2018-04-02T01:25:55.598Z,99158.34
2018-04-02T01:28:23.195Z,99153.73
2018-04-02T01:30:50.791Z,99162.97
2018-04-02T01:33:18.454Z,99171.25
2018-04-02T01:35:46.053Z,99177.32
2018-04-02T01:38:13.643Z,99181.64
2018-04-02T01:40:41.227Z,99187.13
2018-04-02T01:43:08.934Z,99186.07
2018-04-02T01:45:36.529Z,99184.95
2018-04-02T01:48:04.175Z,99196.27
2018-04-02T01:50:31.774Z,99197.61
2018-04-02T01:52:59.375Z,99205.23
2018-04-02T01:55:27.018Z,99201.27
2018-04-02T01:57:54.646Z,99199.81
2018-04-02T02:00:22.251Z,99209.73
2018-04-02T02:02:49.906Z,99211.94
2018-04-02T02:05:17.486Z,99217.27
2018-04-02T02:07:45.059Z,99211.52
2018-04-02T02:10:12.674Z,99214.56
2018-04-02T02:12:40.282Z,99207.98
2018-04-02T02:15:07.862Z,99209.24
2018-04-02T02:17:35.446Z,99205.86
2018-04-02T02:20:03.033Z,99208.89
2018-04-02T02:22:30.663Z,99213.47
2018-04-02T02:24:58.256Z,99219.25
2018-04-02T02:27:25.883Z,99211.70
2018-04-02T02:29:53.487Z,99216.02
2018-04-02T02:32:21.079Z,99214.80
2018-04-02T02:34:48.704Z,99217.55
2018-04-02T02:37:16.307Z,99213.47
2018-04-02T02:39:43.894Z,99217.50
2018-04-02T02:42:11.511Z,99216.12
2018-04-02T02:44:39.134Z,99218.10
2018-04-02T02:47:06.778Z,99222.47
2018-04-02T02:49:34.375Z,99223.37
2018-04-02T02:52:02.033Z,99233.58
2018-04-02T02:54:29.618Z,99230.54
2018-04-02T02:56:58.685Z,99233.54
2018-04-02T02:59:26.558Z,99237.47
2018-04-02T03:01:54.149Z,99249.19
2018-04-02T03:04:21.759Z,99249.86
2018-04-02T03:06:49.341Z,99260.23
2018-04-02T03:09:16.975Z,99263.00
2018-04-02T03:11:44.568Z,99265.58
2018-04-02T03:14:12.191Z,99266.84
2018-04-02T03:16:39.818Z,99273.80
2018-04-02T03:19:07.399Z,99282.69
2018-04-02T03:21:34.974Z,99284.30
2018-04-02T03:24:02.558Z,99284.22
2018-04-02T03:26:30.230Z,99288.07
2018-04-02T03:28:57.906Z,99295.66
2018-04-02T03:31:25.500Z,99299.70
2018-04-02T03:33:53.086Z,99309.20
2018-04-02T03:36:20.690Z,99307.46
2018-04-02T03:38:48.276Z,99320.78
2018-04-02T03:41:15.887Z,99321.06
2018-04-02T03:43:43.507Z,99324.31
2018-04-02T03:46:11.107Z,99334.80
2018-04-02T03:48:38.717Z,99339.21
2018-04-02T03:51:06.316Z,99340.59
2018-04-02T03:53:33.979Z,99344.78
2018-04-02T03:56:01.555Z,99345.64
2018-04-02T03:58:29.143Z,99354.64
2018-04-02T04:00:56.802Z,99363.36
2018-04-02T04:03:24.414Z,99363.58
2018-04-02T04:05:51.998Z,99365.39
2018-04-02T04:08:19.634Z,99366.14
2018-04-02T04:10:47.239Z,99364.52
2018-04-02T04:13:14.829Z,99369.05
2018-04-02T04:15:42.490Z,99366.88
2018-04-02T04:18:10.107Z,99371.67
2018-04-02T04:20:37.727Z,99381.45
2018-04-02T04:23:05.857Z,99385.86
2018-04-02T04:25:34.313Z,99391.82
2018-04-02T04:28:02.567Z,99392.83
2018-04-02T04:30:30.174Z,99396.75
2018-04-02T04:33:01.123Z,99398.67
2018-04-02T04:35:28.771Z,99407.02
2018-04-02T04:37:56.605Z,99405.50
2018-04-02T04:40:24.579Z,99406.80
2018-04-02T04:42:52.468Z,99407.58
2018-04-02T04:45:20.050Z,99413.87
2018-04-02T04:47:47.667Z,99413.46
2018-04-02T04:50:15.612Z,99418.81
2018-04-02T04:52:43.240Z,99417.41
2018-04-02T04:55:11.313Z,99425.16
2018-04-02T04:57:39.460Z,99436.05
2018-04-02T05:00:07.100Z,99422.80
2018-04-02T05:02:34.727Z,99425.98
2018-04-02T05:05:02.359Z,99427.02
2018-04-02T05:07:29.950Z,99426.19
2018-04-02T05:09:57.722Z,99433.45
2018-04-02T05:12:25.374Z,99436.84
2018-04-02T05:14:53.021Z,99436.28
2018-04-02T05:17:20.618Z,99442.33
2018-04-02T05:19:48.229Z,99456.48
2018-04-02T05:22:15.882Z,99459.56
2018-04-02T05:24:43.551Z,99453.83
2018-04-02T05:27:11.159Z,99454.23
2018-04-02T05:29:39.270Z,99461.81
2018-04-02T05:32:06.910Z,99450.97
2018-04-02T05:34:34.531Z,99459.87
2018-04-02T05:37:02.192Z,99464.31
2018-04-02T05:39:29.777Z,99463.30
2018-04-02T05:41:57.484Z,99463.67
2018-04-02T05:44:25.111Z,99468.92
2018-04-02T05:46:52.754Z,99471.89
2018-04-02T05:49:20.350Z,99481.74
2018-04-02T05:51:47.985Z,99485.23
2018-04-02T05:54:15.593Z,99495.14
2018-04-02T05:56:43.221Z,99506.80
2018-04-02T05:59:10.824Z,99507.54
2018-04-02T06:01:38.430Z,99511.98
2018-04-02T06:04:06.056Z,99512.30
2018-04-02T06:06:33.663Z,99507.44
2018-04-02T06:09:01.247Z,99518.53
2018-04-02T06:11:28.908Z,99523.41
2018-04-02T06:13:56.515Z,99525.08
2018-04-02T06:16:24.099Z,99525.64
2018-04-02T06:18:51.727Z,99528.08
2018-04-02T06:21:19.335Z,99527.31
2018-04-02T06:23:46.960Z,99537.02
2018-04-02T06:26:14.600Z,99532.83
2018-04-02T06:28:42.188Z,99523.20
2018-04-02T06:31:09.790Z,99529.81
2018-04-02T06:33:37.462Z,99529.66
2018-04-02T06:36:05.056Z,99530.55
2018-04-02T06:38:32.650Z,99541.92
2018-04-02T06:41:00.283Z,99539.34
2018-04-02T06:43:27.907Z,99544.47
2018-04-02T06:45:55.508Z,99553.30
2018-04-02T06:48:23.114Z,99552.50
2018-04-02T06:50:50.721Z,99567.92
2018-04-02T06:53:18.370Z,99563.78
2018-04-02T06:55:45.991Z,99564.11
2018-04-02T06:58:13.585Z,99568.94
2018-04-02T07:00:41.214Z,99579.59
2018-04-02T07:03:08.824Z,99590.45
2018-04-02T07:05:36.448Z,99595.13
2018-04-02T07:08:04.075Z,99595.87
2018-04-02T07:10:31.683Z,99597.44
2018-04-02T07:12:59.268Z,99603.05
2018-04-02T07:15:26.875Z,99609.64
2018-04-02T07:17:54.507Z,99618.61
2018-04-02T07:20:22.125Z,99613.83
2018-04-02T07:22:49.748Z,99617.84
2018-04-02T07:25:17.366Z,99626.45
2018-04-02T07:27:45.031Z,99622.70
2018-04-02T07:30:12.630Z,99637.42
2018-04-02T07:32:40.261Z,99638.02
2018-04-02T07:35:07.844Z,99643.13
2018-04-02T07:37:35.442Z,99640.53
2018-04-02T07:40:03.073Z,99655.53
2018-04-02T07:42:30.687Z,99654.53
2018-04-02T07:44:58.267Z,99657.70
2018-04-02T07:47:25.908Z,99655.56
2018-04-02T07:49:53.638Z,99659.48
2018-04-02T07:52:21.267Z,99662.66
2018-04-02T07:54:48.847Z,99658.27
2018-04-02T07:57:16.500Z,99652.50
2018-04-02T07:59:44.121Z,99661.81
2018-04-02T08:02:11.764Z,99668.13
2018-04-02T08:04:39.354Z,99670.22
2018-04-02T08:07:06.942Z,99675.77
2018-04-02T08:09:34.574Z,99678.69
2018-04-02T08:12:02.182Z,99686.76
2018-04-02T08:14:29.824Z,99683.45
2018-04-02T08:16:57.431Z,99694.40
2018-04-02T08:19:25.028Z,99688.03
2018-04-02T08:21:52.694Z,99681.02
2018-04-02T08:24:20.284Z,99694.69
2018-04-02T08:26:47.895Z,99700.12
2018-04-02T08:29:15.522Z,99698.38
2018-04-02T08:31:43.118Z,99697.19
2018-04-02T08:34:10.741Z,99683.35
2018-04-02T08:36:38.403Z,99685.90
2018-04-02T08:39:06.068Z,99685.86
2018-04-02T08:41:33.706Z,99693.72
2018-04-02T08:44:01.367Z,99690.19
2018-04-02T08:46:29.021Z,99700.72
2018-04-02T08:48:56.648Z,99690.66
2018-04-02T08:51:24.294Z,99684.02
2018-04-02T08:53:51.879Z,99691.92
2018-04-02T08:56:19.694Z,99679.39
2018-04-02T08:58:47.311Z,99684.27
2018-04-02T09:01:14.940Z,99679.84
2018-04-02T09:03:42.522Z,99676.59
2018-04-02T09:06:10.104Z,99665.19
2018-04-02T09:11:04.615Z,99676.09
2018-04-02T09:13:32.218Z,99679.44
2018-04-02T09:15:59.830Z,99669.88
2018-04-02T09:18:27.503Z,99678.39
2018-04-02T09:20:55.117Z,99683.63
2018-04-02T09:23:22.705Z,99686.25
2018-04-02T09:25:50.326Z,99680.09
2018-04-02T09:28:17.974Z,99695.53
2018-04-02T09:30:45.571Z,99695.94
2018-04-02T09:33:13.164Z,99684.17
2018-04-02T09:35:40.805Z,99693.42
2018-04-02T09:38:08.471Z,99684.23
2018-04-02T09:40:36.058Z,99673.52
2018-04-02T09:43:03.660Z,99666.30
2018-04-02T09:45:31.333Z,99665.36
2018-04-02T09:47:58.907Z,99671.14
2018-04-02T09:50:26.494Z,99647.05
2018-04-02T09:52:54.480Z,99668.17
2018-04-02T09:55:22.190Z,99654.72
2018-04-02T09:57:49.807Z,99658.66
2018-04-02T10:00:17.452Z,99653.54
2018-04-02T10:02:45.799Z,99660.73
2018-04-02T10:05:13.444Z,99649.41
2018-04-02T10:07:41.074Z,99653.55
2018-04-02T10:10:08.688Z,99649.73
2018-04-02T10:12:36.311Z,99645.38
2018-04-02T10:15:03.907Z,99648.41
2018-04-02T10:17:31.498Z,99653.14
2018-04-02T10:19:59.184Z,99651.70
2018-04-02T10:22:26.769Z,99648.30
2018-04-02T10:24:54.367Z,99652.83
2018-04-02T10:27:21.968Z,99651.73
2018-04-02T10:29:49.566Z,99639.88
2018-04-02T10:32:17.272Z,99656.36
2018-04-02T10:34:44.856Z,99636.69
2018-04-02T10:37:12.452Z,99639.61
2018-04-02T10:39:40.091Z,99635.94
2018-04-02T10:42:07.699Z,99637.17
2018-04-02T10:44:35.386Z,99630.20
2018-04-02T10:47:03.083Z,99625.86
2018-04-02T10:49:30.697Z,99624.77
2018-04-02T10:51:58.302Z,99616.59
2018-04-02T10:54:25.952Z,99618.89
2018-04-02T10:56:53.543Z,99626.86
2018-04-02T10:59:21.180Z,99637.75
2018-04-02T11:01:48.801Z,99636.80
2018-04-02T11:04:16.414Z,99637.10
2018-04-02T11:06:43.998Z,99636.23
2018-04-02T11:09:11.592Z,99628.05
2018-04-02T11:11:39.275Z,99629.96
2018-04-02T11:14:06.882Z,99622.41
2018-04-02T11:16:34.503Z,99627.25
2018-04-02T11:19:02.083Z,99637.21
2018-04-02T11:21:29.699Z,99631.05
2018-04-02T11:23:57.318Z,99626.92
2018-04-02T11:26:24.987Z,99622.53
2018-04-02T11:28:52.582Z,99619.16
2018-04-02T11:31:20.239Z,99622.67
2018-04-02T11:33:47.839Z,99613.26
2018-04-02T11:36:15.427Z,99609.88
2018-04-02T11:38:43.013Z,99622.85
2018-04-02T11:41:10.598Z,99625.96
2018-04-02T11:43:38.233Z,99623.60
2018-04-02T11:46:05.818Z,99619.44
2018-04-02T11:48:33.398Z,99618.54
2018-04-02T11:51:01.019Z,99625.03
2018-04-02T11:53:28.626Z,99616.09
2018-04-02T11:55:56.263Z,99614.91
2018-04-02T11:58:23.845Z,99619.20
2018-04-02T12:00:51.515Z,99614.54
2018-04-02T12:03:19.139Z,99617.64
2018-04-02T12:05:46.747Z,99622.58
2018-04-02T12:08:14.330Z,99616.20
2018-04-02T12:10:41.959Z,99616.60
2018-04-02T12:13:09.564Z,99614.89
2018-04-02T12:15:37.175Z,99608.80
2018-04-02T12:18:04.793Z,99594.23
2018-04-02T12:20:32.380Z,99607.29
2018-04-02T12:23:00.039Z,99598.77
2018-04-02T12:25:27.635Z,99603.16
2018-04-02T12:27:55.243Z,99606.02
2018-04-02T12:30:22.874Z,99614.29
2018-04-02T12:32:50.473Z,99607.68
2018-04-02T12:35:18.079Z,99595.84
2018-04-02T12:37:45.763Z,99605.66
2018-04-02T12:40:13.358Z,99603.66
2018-04-02T12:42:40.962Z,99589.81
2018-04-02T12:45:08.571Z,99588.59
2018-04-02T12:47:36.207Z,99592.56
2018-04-02T12:50:03.852Z,99598.75
2018-04-02T12:52:31.447Z,99600.21
2018-04-02T12:54:59.037Z,99581.31
2018-04-02T12:57:26.663Z,99588.61
2018-04-02T12:59:54.267Z,99589.83
2018-04-02T13:02:21.891Z,99593.17
2018-04-02T13:04:49.535Z,99581.67
2018-04-02T13:07:17.133Z,99571.39
2018-04-02T13:09:44.763Z,99579.80
2018-04-02T13:12:12.340Z,99578.59
2018-04-02T13:14:39.923Z,99580.99
2018-04-02T13:17:07.555Z,99584.30
2018-04-02T13:19:35.265Z,99579.44
2018-04-02T13:22:02.884Z,99590.80
2018-04-02T13:24:30.484Z,99582.44
2018-04-02T13:26:58.084Z,99587.30
2018-04-02T13:29:25.750Z,99579.26
2018-04-02T13:34:45.675Z,99584.52
2018-04-02T13:37:13.278Z,99578.84
2018-04-02T13:39:40.870Z,99583.28
2018-04-02T13:42:08.547Z,99586.47
2018-04-02T13:44:36.153Z,99586.50
2018-04-02T13:47:03.743Z,99589.56
2018-04-02T13:49:31.373Z,99587.72
2018-04-02T13:51:58.973Z,99587.69
2018-04-02T13:54:26.593Z,99579.00
2018-04-02T13:56:54.270Z,99578.47
2018-04-02T13:59:21.853Z,99567.33
2018-04-02T14:01:49.446Z,99596.23
2018-04-02T14:04:17.067Z,99589.69
2018-04-02T14:06:44.682Z,99592.08
2018-04-02T14:09:12.308Z,99585.98
2018-04-02T14:11:40.047Z,99589.33
2018-04-02T14:14:07.650Z,99584.77
2018-04-02T14:16:35.247Z,99594.69
2018-04-02T14:19:02.923Z,99598.52
2018-04-02T14:21:30.532Z,99587.36
2018-04-02T14:23:58.143Z,99589.41
2018-04-02T14:26:25.770Z,99590.81
2018-04-02T14:28:53.394Z,99603.79
2018-04-02T14:31:20.987Z,99586.02
2018-04-02T14:33:48.606Z,99593.50
2018-04-02T14:36:16.226Z,99597.73
2018-04-02T14:38:43.826Z,99597.00
2018-04-02T14:41:11.483Z,99595.67
2018-04-02T14:43:39.107Z,99601.10
2018-04-02T14:46:06.715Z,99601.67
2018-04-02T14:48:34.339Z,99607.91
2018-04-02T14:51:01.928Z,99597.65
2018-04-02T14:53:32.015Z,99609.12
2018-04-02T14:55:59.644Z,99595.88
2018-04-02T14:58:27.223Z,99607.69
2018-04-02T15:00:54.802Z,99610.09
2018-04-02T15:03:22.392Z,99605.38
2018-04-02T15:05:50.239Z,99603.24
2018-04-02T15:08:17.880Z,99609.58
2018-04-02T15:10:45.473Z,99611.52
2018-04-02T15:13:13.088Z,99607.03
2018-04-02T15:15:40.707Z,99611.72
2018-04-02T15:18:08.329Z,99614.77
2018-04-02T15:20:35.926Z,99617.41
2018-04-02T15:23:03.571Z,99630.06
2018-04-02T15:25:31.181Z,99631.51
2018-04-02T15:27:58.782Z,99627.30
2018-04-02T15:30:26.477Z,99628.80
2018-04-02T15:32:54.082Z,99635.50
2018-04-02T15:35:21.687Z,99638.50
2018-04-02T15:37:49.350Z,99653.95
2018-04-02T15:40:16.944Z,99659.59
2018-04-02T15:42:44.595Z,99664.08
2018-04-02T15:45:12.195Z,99664.60
2018-04-02T15:47:39.786Z,99665.93
2018-04-02T15:50:07.455Z,99674.97
2018-04-02T15:52:35.047Z,99680.73
2018-04-02T15:55:02.654Z,99678.14
2018-04-02T15:57:30.275Z,99685.47
2018-04-02T15:59:57.882Z,99689.54
2018-04-02T16:02:25.463Z,99693.14
2018-04-02T16:04:53.115Z,99687.61
2018-04-02T16:07:20.705Z,99687.89
2018-04-02T16:09:48.291Z,99691.84
2018-04-02T16:12:15.891Z,99688.72
2018-04-02T16:14:43.492Z,99704.07
2018-04-02T16:17:11.223Z,99710.69
2018-04-02T16:19:38.772Z,99714.98
2018-04-02T16:22:06.353Z,99715.72
2018-04-02T16:24:33.999Z,99708.96
2018-04-02T16:27:01.579Z,99707.17
2018-04-02T16:29:29.178Z,99711.19
2018-04-02T16:31:56.851Z,99715.05
2018-04-02T16:34:24.454Z,99718.05
2018-04-02T16:36:52.106Z,99716.10
2018-04-02T16:39:19.691Z,99725.64
2018-04-02T16:41:47.270Z,99729.91
2018-04-02T16:44:14.943Z,99720.38
2018-04-02T16:46:42.540Z,99736.23
2018-04-02T16:49:10.142Z,99742.97
2018-04-02T16:51:37.743Z,99741.79
2018-04-02T16:54:05.315Z,99742.19
2018-04-02T16:56:32.988Z,99751.40
2018-04-02T16:59:00.626Z,99759.13
2018-04-02T17:01:28.308Z,99758.80
2018-04-02T17:03:55.938Z,99769.19
2018-04-02T17:06:23.518Z,99774.84
2018-04-02T17:08:51.103Z,99778.16
2018-04-02T17:11:18.753Z,99778.33
2018-04-02T17:13:46.352Z,99773.25
2018-04-02T17:16:13.936Z,99778.89
2018-04-02T17:18:42.852Z,99787.18
2018-04-02T17:21:10.447Z,99794.47
2018-04-02T17:23:38.044Z,99793.59
2018-04-02T17:26:05.694Z,99796.39
2018-04-02T17:28:33.324Z,99800.49
2018-04-02T17:31:00.919Z,99812.55
2018-04-02T17:33:28.558Z,99808.44
2018-04-02T17:35:56.181Z,99809.05
2018-04-02T17:38:23.780Z,99818.64
2018-04-02T17:40:51.400Z,99829.12
2018-04-02T17:43:18.982Z,99832.69
2018-04-02T17:45:46.579Z,99838.20
2018-04-02T17:48:14.178Z,99842.88
2018-04-02T17:50:41.758Z,99842.88
2018-04-02T17:53:09.387Z,99853.78
2018-04-02T17:55:36.985Z,99854.19
2018-04-02T17:58:04.618Z,99850.27
2018-04-02T18:00:32.244Z,99859.05
2018-04-02T18:02:59.840Z,99858.71
2018-04-02T18:05:27.501Z,99863.27
2018-04-02T18:07:55.111Z,99867.27
2018-04-02T18:10:22.751Z,99864.98
2018-04-02T18:12:50.431Z,99873.42
2018-04-02T18:15:18.041Z,99885.00
2018-04-02T18:17:45.670Z,99886.20
2018-04-02T18:20:13.302Z,99888.16
2018-04-02T18:22:40.925Z,99898.34
2018-04-02T18:25:08.543Z,99901.36
2018-04-02T18:27:36.167Z,99915.30
2018-04-02T18:30:03.817Z,99917.72
2018-04-02T18:32:31.416Z,99930.38
2018-04-02T18:34:59.007Z,99931.83
2018-04-02T18:37:26.650Z,99934.89
2018-04-02T18:39:54.254Z,99940.55
2018-04-02T18:42:21.838Z,99940.73
2018-04-02T18:44:49.443Z,99953.81
2018-04-02T18:47:17.056Z,99961.50
2018-04-02T18:49:44.699Z,99964.52
2018-04-02T18:52:12.283Z,99967.80
2018-04-02T18:54:39.883Z,99974.88
2018-04-02T18:57:07.497Z,99984.30
2018-04-02T18:59:35.088Z,99985.58
2018-04-02T19:02:02.807Z,99991.70
2018-04-02T19:04:30.519Z,99996.37
2018-04-02T19:06:58.131Z,99998.08
2018-04-02T19:09:25.770Z,100005.81
2018-04-02T19:11:53.382Z,100004.84
2018-04-02T19:14:20.980Z,100017.03
2018-04-02T19:16:48.619Z,100019.62
2018-04-02T19:19:16.230Z,100035.73
2018-04-02T19:21:43.866Z,100044.52
2018-04-02T19:24:12.643Z,100056.51
2018-04-02T19:26:40.235Z,100066.26
2018-04-02T19:29:07.878Z,100066.39
2018-04-02T19:31:35.475Z,100068.58
2018-04-02T19:34:03.083Z,100064.02
2018-04-02T19:36:30.738Z,100072.10
2018-04-02T19:38:58.375Z,100084.02
2018-04-02T19:41:25.998Z,100079.38
2018-04-02T19:43:53.648Z,100074.94
2018-04-02T19:46:21.247Z,100080.41
2018-04-02T19:48:48.933Z,100073.88
2018-04-02T19:51:16.622Z,100078.31
2018-04-02T19:53:44.261Z,100087.51
2018-04-02T19:56:11.860Z,100087.77
2018-04-02T19:58:39.499Z,100096.55
2018-04-02T20:01:07.096Z,100103.06
2018-04-02T20:03:34.707Z,100108.38
2018-04-02T20:06:02.322Z,100107.38
2018-04-02T20:08:29.915Z,100106.65
2018-04-02T20:10:57.585Z,100119.97
2018-04-02T20:13:25.231Z,100115.55
2018-04-02T20:15:52.820Z,100115.44
2018-04-02T20:18:20.491Z,100115.10
2018-04-02T20:20:48.084Z,100123.56
2018-04-02T20:23:15.715Z,100121.25
2018-04-02T20:25:43.379Z,100126.32
2018-04-02T20:28:11.012Z,100124.16
2018-04-02T20:30:38.600Z,100127.59
2018-04-02T20:33:06.239Z,100121.91
2018-04-02T20:35:33.863Z,100128.79
2018-04-02T20:38:01.463Z,100130.49
2018-04-02T20:40:29.057Z,100130.12
2018-04-02T20:42:56.646Z,100132.48
2018-04-02T20:45:24.270Z,100144.19
2018-04-02T20:47:51.991Z,100140.83
2018-04-02T20:50:19.789Z,100141.83
2018-04-02T20:52:47.454Z,100148.13
2018-04-02T20:55:15.071Z,100144.87
2018-04-02T20:57:43.285Z,100154.17
2018-04-02T21:00:10.360Z,100153.63
2018-04-02T21:02:37.943Z,100151.78
2018-04-02T21:05:05.675Z,100150.93
2018-04-02T21:07:33.292Z,100147.80
2018-04-02T21:10:00.891Z,100155.41
2018-04-02T21:12:28.561Z,100153.16
2018-04-02T21:14:56.191Z,100154.00
2018-04-02T21:17:23.779Z,100148.95
2018-04-02T21:19:51.401Z,100154.55
2018-04-02T21:22:19.033Z,100152.45
2018-04-02T21:24:46.676Z,100156.02
2018-04-02T21:27:14.320Z,100156.92
2018-04-02T21:29:41.958Z,100159.05
2018-04-02T21:32:09.574Z,100160.42
2018-04-02T21:34:37.167Z,100160.51
2018-04-02T21:37:04.800Z,100165.05
2018-04-02T21:39:32.400Z,100159.03
2018-04-02T21:42:00.007Z,100160.44
2018-04-02T21:44:27.619Z,100170.59
2018-04-02T21:46:55.206Z,100164.79
2018-04-02T21:49:22.854Z,100168.69
2018-04-02T21:51:50.479Z,100167.94
2018-04-02T21:54:18.086Z,100174.73
2018-04-02T21:56:45.754Z,100174.69
2018-04-02T21:59:13.343Z,100174.84
2018-04-02T22:01:40.929Z,100185.77
2018-04-02T22:04:08.591Z,100179.42
2018-04-02T22:06:48.410Z,100171.56
2018-04-02T22:09:16.045Z,100177.59
2018-04-02T22:11:43.637Z,100172.75
2018-04-02T22:14:11.231Z,100172.64
2018-04-02T22:16:38.883Z,100174.41
2018-04-02T22:19:06.531Z,100174.44
2018-04-02T22:21:34.126Z,100186.61
2018-04-02T22:24:01.724Z,100193.27
2018-04-02T22:26:29.322Z,100199.69
2018-04-02T22:28:56.964Z,100196.64
2018-04-02T22:31:24.575Z,100199.11
2018-04-02T22:33:52.262Z,100196.69
2018-04-02T22:36:19.939Z,100198.19
2018-04-02T22:38:47.570Z,100196.88
2018-04-02T22:41:18.335Z,100200.45
2018-04-02T22:43:45.931Z,100197.04
2018-04-02T22:46:13.563Z,100205.98
2018-04-02T22:48:41.263Z,100201.95
2018-04-02T22:51:08.896Z,100207.86
2018-04-02T22:53:36.491Z,100210.88
2018-04-02T22:56:04.119Z,100204.13
2018-04-02T22:58:31.731Z,100206.90
2018-04-02T23:00:59.359Z,100218.91
2018-04-02T23:03:27.022Z,100207.35
2018-04-02T23:05:54.622Z,100210.23
2018-04-02T23:08:22.202Z,100211.45
2018-04-02T23:10:49.832Z,100214.33
2018-04-02T23:13:17.433Z,100215.13
2018-04-02T23:15:45.029Z,100212.97
2018-04-02T23:18:12.662Z,100206.97
2018-04-02T23:20:40.262Z,100214.15
2018-04-02T23:23:07.878Z,100212.10
2018-04-02T23:25:35.494Z,100214.57
2018-04-02T23:28:03.084Z,100220.40
2018-04-02T23:30:30.679Z,100218.59
2018-04-02T23:32:58.302Z,100224.14
2018-04-02T23:35:25.886Z,100217.89
2018-04-02T23:37:53.529Z,100221.31
2018-04-02T23:40:21.135Z,100215.42
2018-04-02T23:42:48.734Z,100213.22
2018-04-02T23:45:16.323Z,100214.14
2018-04-02T23:47:43.939Z,100209.16
2018-04-02T23:50:11.574Z,100215.69
2018-04-02T23:52:39.278Z,100220.86
2018-04-02T23:55:06.894Z,100208.06
2018-04-02T23:57:34.527Z,100216.05
